createdAt,value
2022-09-12T00:01:47.101Z,66.54
2022-09-12T00:04:48.686Z,65.44
2022-09-12T00:07:50.281Z,66.81
2022-09-12T00:10:51.948Z,65.41
2022-09-12T00:14:01.353Z,67.30
2022-09-12T00:17:03.303Z,66.91
2022-09-12T00:20:09.392Z,66.06
2022-09-12T00:23:11.793Z,66.93
2022-09-12T00:26:13.906Z,65.59
2022-09-12T00:29:16.543Z,66.77
2022-09-12T00:32:17.908Z,66.06
2022-09-12T00:35:19.306Z,66.36
2022-09-12T00:38:21.362Z,65.18
2022-09-12T00:41:31.781Z,65.75
2022-09-12T00:44:35.953Z,66.84
2022-09-12T00:47:37.861Z,66.95
2022-09-12T00:50:39.316Z,66.10
2022-09-12T00:53:44.325Z,67.36
2022-09-12T00:56:48.211Z,67.37
2022-09-12T00:59:58.832Z,65.97
2022-09-12T01:03:04.547Z,66.28
2022-09-12T01:06:14.095Z,65.49
2022-09-12T01:09:22.249Z,66.49
2022-09-12T01:12:24.357Z,66.89
2022-09-12T01:15:25.827Z,67.05
2022-09-12T01:18:50.263Z,67.51
2022-09-12T01:22:16.621Z,67.36
2022-09-12T01:25:56.128Z,66.83
2022-09-12T01:29:31.366Z,66.06
2022-09-12T01:32:55.042Z,66.03
2022-09-12T01:36:34.651Z,65.88
2022-09-12T01:39:51.411Z,65.51
2022-09-12T01:43:03.179Z,65.99
2022-09-12T01:46:19.294Z,65.50
2022-09-12T01:49:25.832Z,67.22
2022-09-12T01:52:36.103Z,66.08
2022-09-12T01:55:46.394Z,66.61
2022-09-12T01:58:53.980Z,65.36
2022-09-12T02:02:12.937Z,65.27
2022-09-12T02:05:34.503Z,65.11
2022-09-12T02:08:43.526Z,64.79
2022-09-12T02:11:47.225Z,66.26
2022-09-12T02:14:54.652Z,65.33
2022-09-12T02:18:01.316Z,65.89
2022-09-12T02:21:06.101Z,65.03
2022-09-12T02:24:10.236Z,65.31
2022-09-12T02:27:16.606Z,65.93
2022-09-12T02:30:19.422Z,66.11
2022-09-12T02:33:28.862Z,66.59
2022-09-12T02:37:00.557Z,65.76
2022-09-12T02:40:02.367Z,66.33
2022-09-12T02:43:06.277Z,65.33
2022-09-12T02:46:13.729Z,65.03
2022-09-12T02:49:17.238Z,65.35
2022-09-12T02:52:19.658Z,65.86
2022-09-12T02:55:21.478Z,64.83
2022-09-12T02:58:27.011Z,65.24
2022-09-12T03:01:43.601Z,65.54
2022-09-12T03:05:02.626Z,65.90
2022-09-12T03:08:32.544Z,66.04
2022-09-12T03:12:02.463Z,65.94
2022-09-12T03:15:34.372Z,65.93
2022-09-12T03:18:44.881Z,66.56
2022-09-12T03:21:58.089Z,65.89
2022-09-12T03:25:20.758Z,65.66
2022-09-12T03:28:24.178Z,64.96
2022-09-12T03:31:26.004Z,65.37
2022-09-12T03:34:28.309Z,65.70
2022-09-12T03:37:29.723Z,67.23
2022-09-12T03:40:31.122Z,65.64
2022-09-12T03:43:32.569Z,65.64
2022-09-12T03:46:34.477Z,66.67
2022-09-12T03:49:35.892Z,66.66
2022-09-12T03:52:37.412Z,67.13
2022-09-12T03:55:39.016Z,66.93
2022-09-12T03:58:40.566Z,66.92
2022-09-12T04:01:42.373Z,68.09
2022-09-12T04:04:44.147Z,67.37
2022-09-12T04:07:45.565Z,67.78
2022-09-12T04:10:47.056Z,68.00
2022-09-12T04:13:49.063Z,68.55
2022-09-12T04:16:50.603Z,67.94
2022-09-12T04:19:52.018Z,68.08
2022-09-12T04:22:53.412Z,66.64
2022-09-12T04:26:00.404Z,66.70
2022-09-12T04:29:01.806Z,65.66
2022-09-12T04:32:03.783Z,66.11
2022-09-12T04:35:05.404Z,66.37
2022-09-12T04:38:07.083Z,66.61
2022-09-12T04:41:13.599Z,65.48
2022-09-12T04:44:15.488Z,65.43
2022-09-12T04:47:16.938Z,65.26
2022-09-12T04:50:19.091Z,65.18
2022-09-12T04:53:20.490Z,66.75
2022-09-12T04:56:22.724Z,66.27
2022-09-12T04:59:24.080Z,66.88
2022-09-12T05:02:25.719Z,67.24
2022-09-12T05:05:27.412Z,67.96
2022-09-12T05:08:28.992Z,66.71
2022-09-12T05:12:02.583Z,67.10
2022-09-12T05:14:57.793Z,66.32
2022-09-12T05:17:59.211Z,66.45
2022-09-12T05:21:02.110Z,66.83
2022-09-12T05:24:06.088Z,66.52
2022-09-12T05:27:07.476Z,67.40
2022-09-12T05:30:09.671Z,68.01
2022-09-12T05:33:11.640Z,68.32
2022-09-12T05:36:19.224Z,68.59
2022-09-12T05:39:20.948Z,69.17
2022-09-12T05:42:23.408Z,68.66
2022-09-12T05:45:25.134Z,68.39
2022-09-12T05:48:26.561Z,68.05
2022-09-12T05:51:31.841Z,68.80
2022-09-12T05:54:34.343Z,68.03
2022-09-12T05:57:36.359Z,68.45
2022-09-12T06:00:37.763Z,68.46
2022-09-12T06:03:44.659Z,68.04
2022-09-12T06:06:46.715Z,68.16
2022-09-12T06:09:48.113Z,67.73
2022-09-12T06:12:49.529Z,67.86
2022-09-12T06:15:51.279Z,68.75
2022-09-12T06:18:55.412Z,68.87
2022-09-12T06:21:57.083Z,68.42
2022-09-12T06:24:58.503Z,68.60
2022-09-12T06:28:00.004Z,68.18
2022-09-12T06:31:12.447Z,68.36
2022-09-12T06:34:15.600Z,68.20
2022-09-12T06:37:17.016Z,67.98
2022-09-12T06:40:18.453Z,67.88
2022-09-12T06:43:19.921Z,67.43
2022-09-12T06:46:23.429Z,67.11
2022-09-12T06:49:24.973Z,66.25
2022-09-12T06:52:29.519Z,65.94
2022-09-12T06:55:30.969Z,66.99
2022-09-12T06:58:33.313Z,66.23
2022-09-12T07:01:34.817Z,66.36
2022-09-12T07:04:37.105Z,65.31
2022-09-12T07:07:38.426Z,65.51
2022-09-12T07:10:39.946Z,65.00
2022-09-12T07:13:43.769Z,64.67
2022-09-12T07:16:45.395Z,64.42
2022-09-12T07:19:47.473Z,64.23
2022-09-12T07:22:50.350Z,63.65
2022-09-12T07:25:59.221Z,63.63
2022-09-12T07:29:19.034Z,63.97
2022-09-12T07:32:25.980Z,63.69
2022-09-12T07:35:28.518Z,63.36
2022-09-12T07:38:30.437Z,63.99
2022-09-12T07:41:35.464Z,64.17
2022-09-12T07:44:36.933Z,64.48
2022-09-12T07:47:38.353Z,64.41
2022-09-12T07:50:44.996Z,64.41
2022-09-12T07:53:47.516Z,64.34
2022-09-12T07:56:49.073Z,63.88
2022-09-12T07:59:52.810Z,63.11
2022-09-12T08:02:55.109Z,62.58
2022-09-12T08:06:03.802Z,61.75
2022-09-12T08:09:06.045Z,61.50
2022-09-12T08:12:07.732Z,61.11
2022-09-12T08:15:09.574Z,61.14
2022-09-12T08:18:11.511Z,59.97
2022-09-12T08:21:18.336Z,58.38
2022-09-12T08:24:19.736Z,57.17
2022-09-12T08:27:21.140Z,56.76
2022-09-12T08:30:22.555Z,55.81
2022-09-12T08:33:27.281Z,55.05
2022-09-12T08:36:29.558Z,55.80
2022-09-12T08:39:32.633Z,54.91
2022-09-12T08:42:53.466Z,55.94
2022-09-12T08:46:04.140Z,55.86
2022-09-12T08:49:11.736Z,53.97
2022-09-12T08:52:22.369Z,52.06
2022-09-12T08:55:32.888Z,52.23
2022-09-12T08:58:40.665Z,52.78
2022-09-12T09:01:45.275Z,54.23
2022-09-12T09:05:03.351Z,53.88
2022-09-12T09:08:26.754Z,53.60
2022-09-12T09:11:45.906Z,52.33
2022-09-12T09:14:56.349Z,52.31
2022-09-12T09:18:04.179Z,51.64
2022-09-12T09:21:31.747Z,51.35
2022-09-12T09:24:38.545Z,52.30
2022-09-12T09:27:51.973Z,50.43
2022-09-12T09:30:53.748Z,51.84
2022-09-12T09:33:55.517Z,51.17
2022-09-12T09:37:20.010Z,51.92
2022-09-12T09:40:41.555Z,51.52
2022-09-12T09:43:42.992Z,50.01
2022-09-12T09:46:44.557Z,51.22
2022-09-12T09:49:46.396Z,52.74
2022-09-12T09:52:50.631Z,51.00
2022-09-12T09:55:55.630Z,51.32
2022-09-12T09:58:57.107Z,51.02
2022-09-12T10:02:03.667Z,50.74
2022-09-12T10:05:05.619Z,50.67
2022-09-12T10:08:07.816Z,50.81
2022-09-12T10:11:12.476Z,49.06
2022-09-12T10:14:36.889Z,48.38
2022-09-12T10:17:49.390Z,48.45
2022-09-12T10:20:50.853Z,47.08
2022-09-12T10:24:00.219Z,46.19
2022-09-12T10:27:19.178Z,45.15
2022-09-12T10:30:24.806Z,45.25
2022-09-12T10:33:27.077Z,45.60
2022-09-12T10:36:39.605Z,46.04
2022-09-12T10:39:41.847Z,44.77
2022-09-12T10:42:52.823Z,42.96
2022-09-12T10:45:59.306Z,44.43
2022-09-12T10:49:24.109Z,43.43
2022-09-12T10:52:25.913Z,42.41
2022-09-12T10:55:31.543Z,41.21
2022-09-12T10:58:47.284Z,41.40
2022-09-12T11:01:59.736Z,39.96
2022-09-12T11:05:27.309Z,42.68
2022-09-12T11:08:49.247Z,41.43
2022-09-12T11:12:22.131Z,41.65
2022-09-12T11:15:36.435Z,41.24
2022-09-12T11:19:15.406Z,37.59
2022-09-12T11:22:37.747Z,36.33
2022-09-12T11:25:51.507Z,36.23
2022-09-12T11:29:34.244Z,34.17
2022-09-12T11:32:53.844Z,34.14
2022-09-12T11:35:57.519Z,35.34
2022-09-12T11:39:27.580Z,33.06
2022-09-12T11:42:34.250Z,34.13
2022-09-12T11:45:42.786Z,34.11
2022-09-12T11:48:53.096Z,32.51
2022-09-12T11:52:06.922Z,34.38
2022-09-12T11:55:19.497Z,32.53
2022-09-12T11:58:25.597Z,34.34
2022-09-12T12:01:42.907Z,37.16
2022-09-12T12:05:03.373Z,35.23
2022-09-12T12:08:06.241Z,36.27
2022-09-12T12:11:08.829Z,37.25
2022-09-12T12:14:19.565Z,36.09
2022-09-12T12:17:24.109Z,33.88
2022-09-12T12:20:27.205Z,37.00
2022-09-12T12:23:34.910Z,36.52
2022-09-12T12:26:39.800Z,36.33
2022-09-12T12:29:44.309Z,38.24
2022-09-12T12:32:46.004Z,36.86
2022-09-12T12:35:59.481Z,37.71
2022-09-12T12:39:33.031Z,36.21
2022-09-12T12:42:37.021Z,36.74
2022-09-12T12:45:38.362Z,36.88
2022-09-12T12:49:09.647Z,36.42
2022-09-12T12:52:18.509Z,36.88
2022-09-12T12:55:27.521Z,35.94
2022-09-12T12:58:35.009Z,35.08
2022-09-12T13:01:40.951Z,37.04
2022-09-12T13:04:44.716Z,35.72
2022-09-12T13:07:48.141Z,37.23
2022-09-12T13:10:53.683Z,38.53
2022-09-12T13:14:00.561Z,39.80
2022-09-12T13:17:06.313Z,36.05
2022-09-12T13:20:30.142Z,38.68
2022-09-12T13:23:32.833Z,36.06
2022-09-12T13:26:43.265Z,36.64
2022-09-12T13:29:44.715Z,37.13
2022-09-12T13:32:46.147Z,37.12
2022-09-12T13:36:32.162Z,35.76
2022-09-12T13:39:46.551Z,34.96
2022-09-12T13:42:51.594Z,34.36
2022-09-12T13:45:53.363Z,36.16
2022-09-12T13:48:54.923Z,35.85
2022-09-12T13:52:02.014Z,35.18
2022-09-12T13:55:14.677Z,35.65
2022-09-12T13:58:26.942Z,35.85
2022-09-12T14:01:46.365Z,34.25
2022-09-12T14:05:09.247Z,34.37
2022-09-12T14:08:15.281Z,33.42
2022-09-12T14:11:28.454Z,33.41
2022-09-12T14:14:36.503Z,32.76
2022-09-12T14:17:39.593Z,33.33
2022-09-12T14:20:41.917Z,35.93
2022-09-12T14:23:47.784Z,32.44
2022-09-12T14:26:50.886Z,32.62
2022-09-12T14:30:07.446Z,31.97
2022-09-12T14:33:11.700Z,35.17
2022-09-12T14:36:19.706Z,32.78
2022-09-12T14:39:37.647Z,30.36
2022-09-12T14:42:42.453Z,30.91
2022-09-12T14:45:44.010Z,31.41
2022-09-12T14:48:58.757Z,33.74
2022-09-12T14:52:03.603Z,33.10
2022-09-12T14:55:29.799Z,33.28
2022-09-12T14:58:31.430Z,31.85
2022-09-12T15:01:32.926Z,32.44
2022-09-12T15:04:38.238Z,33.06
2022-09-12T15:07:42.498Z,34.11
2022-09-12T15:10:43.959Z,33.61
2022-09-12T15:13:45.412Z,36.60
2022-09-12T15:16:46.899Z,36.07
2022-09-12T15:19:48.328Z,38.19
2022-09-12T15:22:50.355Z,37.54
2022-09-12T15:25:52.310Z,37.61
2022-09-12T15:28:53.949Z,33.89
2022-09-12T15:31:55.288Z,37.06
2022-09-12T15:34:56.797Z,37.39
2022-09-12T15:37:58.405Z,35.62
2022-09-12T15:41:00.133Z,34.98
2022-09-12T15:44:04.006Z,36.46
2022-09-12T15:47:05.732Z,36.22
2022-09-12T15:50:07.225Z,34.93
2022-09-12T15:53:16.629Z,35.35
2022-09-12T15:56:21.132Z,37.57
2022-09-12T15:59:22.561Z,38.27
2022-09-12T16:02:24.088Z,39.01
2022-09-12T16:05:26.480Z,37.96
2022-09-12T16:08:31.322Z,38.84
2022-09-12T16:11:33.035Z,39.38
2022-09-12T16:14:34.554Z,40.00
2022-09-12T16:17:35.981Z,40.86
2022-09-12T16:20:40.159Z,41.39
2022-09-12T16:23:45.504Z,41.28
2022-09-12T16:26:47.207Z,42.26
2022-09-12T16:29:48.568Z,42.98
2022-09-12T16:32:52.070Z,42.68
2022-09-12T16:35:55.042Z,44.64
2022-09-12T16:38:56.514Z,44.67
2022-09-12T16:41:58.127Z,44.57
2022-09-12T16:44:59.573Z,45.14
2022-09-12T16:48:01.106Z,44.85
2022-09-12T16:51:05.305Z,44.83
2022-09-12T16:54:06.706Z,43.91
2022-09-12T16:57:08.196Z,45.81
2022-09-12T17:00:10.233Z,44.93
2022-09-12T17:03:11.719Z,44.50
2022-09-12T17:06:16.446Z,45.62
2022-09-12T17:09:18.629Z,45.92
2022-09-12T17:12:20.145Z,46.62
2022-09-12T17:15:21.614Z,47.07
2022-09-12T17:18:23.552Z,47.99
2022-09-12T17:21:25.002Z,48.66
2022-09-12T17:24:26.730Z,49.04
2022-09-12T17:27:28.172Z,49.85
2022-09-12T17:30:29.596Z,50.17
2022-09-12T17:33:32.046Z,48.63
2022-09-12T17:36:33.964Z,49.19
2022-09-12T17:39:35.460Z,49.44
2022-09-12T17:42:36.901Z,49.82
2022-09-12T17:45:38.893Z,50.27
2022-09-12T17:48:40.312Z,50.89
2022-09-12T17:51:43.486Z,50.81
2022-09-12T17:54:45.223Z,52.70
2022-09-12T17:57:46.777Z,52.65
2022-09-12T18:01:06.825Z,52.16
2022-09-12T18:04:08.398Z,51.64
2022-09-12T18:07:10.576Z,52.44
2022-09-12T18:10:12.162Z,53.18
2022-09-12T18:13:13.985Z,53.01
2022-09-12T18:16:15.511Z,53.77
2022-09-12T18:19:17.280Z,52.60
2022-09-12T18:22:18.777Z,50.49
2022-09-12T18:25:20.624Z,51.11
2022-09-12T18:28:22.153Z,52.19
2022-09-12T18:31:28.010Z,52.44
2022-09-12T18:34:29.596Z,53.32
2022-09-12T18:37:31.054Z,53.59
2022-09-12T18:40:32.462Z,53.65
2022-09-12T18:43:34.065Z,53.68
2022-09-12T18:46:35.766Z,54.06
2022-09-12T18:49:37.189Z,54.02
2022-09-12T18:52:38.606Z,53.69
2022-09-12T18:55:40.168Z,54.04
2022-09-12T18:58:43.331Z,54.45
2022-09-12T19:01:45.356Z,54.70
2022-09-12T19:04:46.997Z,55.81
2022-09-12T19:07:48.717Z,55.47
2022-09-12T19:10:56.450Z,55.91
2022-09-12T19:13:58.044Z,56.21
2022-09-12T19:16:59.663Z,56.50
2022-09-12T19:20:01.344Z,56.49
2022-09-12T19:23:02.939Z,56.35
2022-09-12T19:26:08.484Z,57.49
2022-09-12T19:29:11.585Z,56.54
2022-09-12T19:32:13.116Z,55.84
2022-09-12T19:35:14.599Z,57.07
2022-09-12T19:38:16.848Z,55.25
2022-09-12T19:41:19.055Z,56.60
2022-09-12T19:44:20.499Z,56.50
2022-09-12T19:47:22.002Z,56.89
2022-09-12T19:50:23.660Z,57.61
2022-09-12T19:53:25.126Z,57.86
2022-09-12T19:56:27.024Z,57.82
2022-09-12T19:59:28.491Z,57.39
2022-09-12T20:02:30.237Z,57.03
2022-09-12T20:05:33.391Z,57.08
2022-09-12T20:08:40.759Z,57.44
2022-09-12T20:11:42.296Z,57.51
2022-09-12T20:14:43.813Z,57.28
2022-09-12T20:17:45.341Z,56.32
2022-09-12T20:20:46.907Z,56.72
2022-09-12T20:23:48.627Z,57.45
2022-09-12T20:26:50.178Z,57.87
2022-09-12T20:29:53.194Z,56.89
2022-09-12T20:32:55.136Z,56.04
2022-09-12T20:36:09.240Z,56.20
2022-09-12T20:39:16.498Z,57.48
2022-09-12T20:42:17.947Z,58.22
2022-09-12T20:45:19.340Z,56.88
2022-09-12T20:48:20.961Z,56.60
2022-09-12T20:51:24.460Z,58.58
2022-09-12T20:54:25.866Z,58.71
2022-09-12T20:57:28.648Z,59.06
2022-09-12T21:00:32.115Z,59.13
2022-09-12T21:03:37.474Z,58.71
2022-09-12T21:06:39.197Z,58.73
2022-09-12T21:09:40.583Z,56.96
2022-09-12T21:12:42.063Z,58.51
2022-09-12T21:15:43.535Z,58.57
2022-09-12T21:18:46.694Z,58.39
2022-09-12T21:21:48.258Z,57.92
2022-09-12T21:24:49.723Z,58.12
2022-09-12T21:27:51.206Z,58.25
2022-09-12T21:30:53.030Z,57.24
2022-09-12T21:33:54.451Z,57.72
2022-09-12T21:36:56.031Z,58.13
2022-09-12T21:39:59.000Z,58.63
2022-09-12T21:43:00.837Z,58.70
2022-09-12T21:46:03.218Z,58.61
2022-09-12T21:49:04.725Z,58.44
2022-09-12T21:52:06.716Z,58.02
2022-09-12T21:55:09.078Z,57.70
2022-09-12T21:58:10.638Z,58.05
2022-09-12T22:01:12.557Z,58.15
2022-09-12T22:04:14.042Z,57.83
2022-09-12T22:07:19.070Z,57.10
2022-09-12T22:10:20.469Z,57.71
2022-09-12T22:13:21.916Z,56.96
2022-09-12T22:16:23.587Z,55.67
2022-09-12T22:19:25.036Z,55.47
2022-09-12T22:22:45.212Z,53.83
2022-09-12T22:25:46.997Z,53.01
2022-09-12T22:28:49.188Z,53.22
2022-09-12T22:31:50.753Z,52.69
2022-09-12T22:34:52.184Z,52.96
2022-09-12T22:37:53.581Z,52.39
2022-09-12T22:40:55.306Z,52.84
2022-09-12T22:43:57.637Z,53.00
2022-09-12T22:46:59.187Z,52.40
2022-09-12T22:50:00.739Z,54.69
2022-09-12T22:53:02.127Z,54.76
2022-09-12T22:56:05.097Z,55.56
2022-09-12T22:59:06.850Z,56.50
2022-09-12T23:02:08.451Z,56.45
2022-09-12T23:05:09.881Z,56.94
2022-09-12T23:08:11.680Z,57.94
2022-09-12T23:11:15.447Z,57.23
2022-09-12T23:14:17.478Z,57.51
2022-09-12T23:17:18.977Z,57.77
2022-09-12T23:20:20.365Z,57.88
2022-09-12T23:23:21.776Z,58.54
2022-09-12T23:26:24.877Z,58.44
2022-09-12T23:29:27.007Z,58.69
2022-09-12T23:32:28.398Z,58.48
2022-09-12T23:35:29.799Z,58.06
2022-09-12T23:38:32.581Z,58.17
2022-09-12T23:41:34.003Z,58.17
2022-09-12T23:44:35.412Z,57.82
2022-09-12T23:47:36.917Z,58.43
2022-09-12T23:50:38.384Z,59.44
2022-09-12T23:53:39.995Z,59.03
2022-09-12T23:56:41.425Z,59.03
2022-09-12T23:59:42.887Z,58.41
